Ana Sayfa
METAR-TAF:

METAR-TAF

Havaalanları :

Hagåtña, Guam, Amerika Birleşik Devletleri

Enlem: 13-29N, Boylam: 144-48E, yükseklik: 91 m

Güncel hava durumu gözlemi

Rapor saat 20:54 UTC de 38 dakika önce yapıldı.
Rüzgar doğudan 8 kt
Sıcaklık 27°C
Nem 74%
Basınç 1011 hPa
Görüş mesafesi: 16.1 km
3500 ft yükseklikte az bulutlu

METAR: PGUM 062054Z 08008KT 10SM FEW035 27/22 A2986 RMK AO2 SLP103 T02720222 53012

Saat: 07:32 (21:32 UTC)

Tahmin

Rapor saat 17:38 UTC de 3 saat ve 54 dakika önce yapıldı.
Ayın 06'si saat 18 UTC'den ayın 07'si saat 24 UTC'ye kadar geçerli Tahmin
Rüzgar doğudan 8 kt
Görüş mesafesi: 10 km
2200 ft yükseklikte az bulutlu
5000 ft yükseklikte parçalı bulutlu
Civarda sağanaklar,

TAF: PGUM 061738Z 0618/0724 08008KT P6SM VCSH FEW022 SCT050

4.000'den fazla havaalanı için hava durumu gözlemleri ve tahminleri (METAR ve TAF raporları).

Kullanılabilir istasyonlar harita üzerinde sarı ve kırmızı noktalarla gösterilir.

İstasyonun adını görmek için fareyi noktanın üzerinde gezdirin.

Sonrasında hava gözlem ve tahminlerini görmek için tıklayın.

Haritayı değiştirmek için: yaklaştırmak için siyah artı işaretli yeşil düğmeye ve uzaklaştırmak için de eksi işaretli düğmeye hızla tıklayın; bitişik haritalar için yeşil okları kullanın.


METAR-TAF: